W18 weather

CLOSED Suburban Airport
Laurel, Maryland, United States

Public forecast

Using degrees Fahrenheit for public forecast. Weather courtesy of forecast.io.

METAR (pilot weather report)

Closest report is Tipton Airport, 3.2 nm (6.0 km) E. Retrieved 2019/09/17 20:42 UTC (0 seconds ago):

KFME 172042Z AUTO 09005KT 10SM SCT050 25/14 A3010 RMK AO1

TAF (pilot weather forecast)

Closest forecast is Baltimore/Washington International Thurgood Marshall Airport, 9.5 nm (17.6 km) NE. Retrieved 2019/09/17 18:27 UTC (2 hours ago):

TAF KBWI 171724Z 1718/1824 08010KT P6SM BKN050 BKN090 FM172100 07007KT P6SM SCT100 FM180100 VRB03KT P6SM SKC FM181500 06007KT P6SM FEW040